N296PL -KSAN
Flight info
| Callsign | N296PL |
|---|---|
| Flight time | N/A |
| Altitude | |
| Route | PATTERN |
| Aircraft | C172/L-VGD/C |
Departure
| Time | N/A |
|---|---|
| Airport | - |
Arrival
| Time | 2026-04-23 02:46 |
|---|---|
| Airport | San Diego International Airport (KSAN) |
| Time | Latitude | Longitude | Altitude | Speed | Heading |
|---|---|---|---|---|---|
| 2026-04-23 02:46 | 32.73339 | -117.17874 | 19 ft | 0 kts | 185° |
| 2026-04-23 02:50 | 32.73328 | -117.17886 | 19 ft | 9 kts | 251° |
| 2026-04-23 02:50 | 32.73291 | -117.17976 | 19 ft | 12 kts | 207° |
| 2026-04-23 02:51 | 32.73223 | -117.17939 | 17 ft | 14 kts | 113° |
| 2026-04-23 02:51 | 32.73193 | -117.17818 | 17 ft | 17 kts | 105° |
| 2026-04-23 02:51 | 32.73168 | -117.17714 | 18 ft | 10 kts | 107° |
| 2026-04-23 02:51 | 32.73145 | -117.17627 | 17 ft | 15 kts | 101° |
| 2026-04-23 02:52 | 32.73095 | -117.17552 | 17 ft | 0 kts | 149° |
| 2026-04-23 02:53 | 32.73043 | -117.17632 | 16 ft | 35 kts | 274° |
| 2026-04-23 02:54 | 32.73141 | -117.18100 | 33 ft | 76 kts | 284° |
| 2026-04-23 02:54 | 32.73296 | -117.18732 | 256 ft | 77 kts | 289° |
| 2026-04-23 02:54 | 32.73454 | -117.19353 | 454 ft | 80 kts | 287° |
| 2026-04-23 02:54 | 32.73613 | -117.19983 | 687 ft | 80 kts | 289° |
| 2026-04-23 02:55 | 32.73941 | -117.20458 | 928 ft | 78 kts | 341° |
| 2026-04-23 02:55 | 32.74524 | -117.20461 | 1008 ft | 95 kts | 6° |
| 2026-04-23 02:55 | 32.75130 | -117.20173 | 1179 ft | 95 kts | 30° |
| 2026-04-23 02:55 | 32.75347 | -117.19537 | 1050 ft | 96 kts | 122° |
| 2026-04-23 02:56 | 32.75071 | -117.18919 | 1002 ft | 85 kts | 120° |
| 2026-04-23 02:56 | 32.74810 | -117.18246 | 994 ft | 92 kts | 114° |
| 2026-04-23 02:56 | 32.74565 | -117.17561 | 1048 ft | 92 kts | 112° |
| 2026-04-23 02:56 | 32.74418 | -117.16803 | 1064 ft | 94 kts | 102° |
| 2026-04-23 02:57 | 32.74294 | -117.16047 | 1084 ft | 94 kts | 101° |
| 2026-04-23 02:57 | 32.74180 | -117.15280 | 1098 ft | 93 kts | 103° |
| 2026-04-23 02:57 | 32.74056 | -117.14521 | 1104 ft | 94 kts | 101° |
| 2026-04-23 02:57 | 32.73933 | -117.13761 | 1114 ft | 94 kts | 102° |
| 2026-04-23 02:58 | 32.73805 | -117.13004 | 1132 ft | 93 kts | 104° |
| 2026-04-23 02:58 | 32.73674 | -117.12246 | 1124 ft | 95 kts | 101° |
| 2026-04-23 02:58 | 32.73580 | -117.11479 | 1261 ft | 93 kts | 77° |
| 2026-04-23 02:58 | 32.74075 | -117.11108 | 1491 ft | 87 kts | 350° |
| 2026-04-23 02:59 | 32.74503 | -117.11559 | 1693 ft | 87 kts | 280° |
| 2026-04-23 02:59 | 32.74152 | -117.12080 | 1864 ft | 92 kts | 186° |
| 2026-04-23 02:59 | 32.73635 | -117.11659 | 1877 ft | 98 kts | 107° |
| 2026-04-23 02:59 | 32.73842 | -117.10941 | 1848 ft | 97 kts | 41° |
| 2026-04-23 03:00 | 32.74466 | -117.10759 | 1819 ft | 96 kts | 341° |
| 2026-04-23 03:00 | 32.74833 | -117.11353 | 1809 ft | 96 kts | 267° |
| 2026-04-23 03:00 | 32.74373 | -117.11835 | 1786 ft | 101 kts | 176° |
| 2026-04-23 03:00 | 32.73973 | -117.11261 | 1815 ft | 101 kts | 83° |
| 2026-04-23 03:01 | 32.74445 | -117.10785 | 1857 ft | 98 kts | 353° |
| 2026-04-23 03:01 | 32.74789 | -117.11356 | 1865 ft | 99 kts | 253° |
| 2026-04-23 03:01 | 32.74226 | -117.11670 | 1884 ft | 102 kts | 161° |
| 2026-04-23 03:01 | 32.73908 | -117.11010 | 1942 ft | 100 kts | 80° |
| 2026-04-23 03:02 | 32.74397 | -117.10499 | 1924 ft | 103 kts | 356° |
| 2026-04-23 03:02 | 32.74824 | -117.11035 | 1905 ft | 99 kts | 266° |
| 2026-04-23 03:02 | 32.74349 | -117.11520 | 1864 ft | 101 kts | 176° |
| 2026-04-23 03:02 | 32.73940 | -117.10941 | 1829 ft | 103 kts | 83° |
| 2026-04-23 03:03 | 32.74043 | -117.10167 | 1920 ft | 91 kts | 92° |
| 2026-04-23 03:03 | 32.74047 | -117.09402 | 1912 ft | 94 kts | 88° |
| 2026-04-23 03:03 | 32.73979 | -117.08648 | 1912 ft | 92 kts | 116° |
| 2026-04-23 03:03 | 32.73706 | -117.07910 | 1934 ft | 103 kts | 115° |
| 2026-04-23 03:04 | 32.73424 | -117.07330 | 2048 ft | 66 kts | 125° |
| 2026-04-23 03:04 | 32.73118 | -117.06888 | 1981 ft | 72 kts | 163° |
| 2026-04-23 03:04 | 32.72688 | -117.07054 | 1860 ft | 73 kts | 217° |
| 2026-04-23 03:04 | 32.72151 | -117.07521 | 1755 ft | 109 kts | 222° |
| 2026-04-23 03:05 | 32.71786 | -117.08302 | 1789 ft | 104 kts | 278° |
| 2026-04-23 03:05 | 32.72238 | -117.08971 | 1877 ft | 110 kts | 334° |
| 2026-04-23 03:05 | 32.72993 | -117.08952 | 1916 ft | 120 kts | 33° |
| 2026-04-23 03:05 | 32.73392 | -117.08140 | 1977 ft | 115 kts | 93° |
| 2026-04-23 03:06 | 32.73306 | -117.07225 | 2045 ft | 108 kts | 106° |
| 2026-04-23 03:06 | 32.72759 | -117.06595 | 1999 ft | 119 kts | 171° |
| 2026-04-23 03:06 | 32.72047 | -117.06911 | 1895 ft | 120 kts | 230° |
| 2026-04-23 03:06 | 32.71691 | -117.07826 | 1827 ft | 126 kts | 258° |
| 2026-04-23 03:07 | 32.71507 | -117.08861 | 1562 ft | 133 kts | 260° |
| 2026-04-23 03:07 | 32.71406 | -117.09947 | 1303 ft | 132 kts | 269° |
| 2026-04-23 03:07 | 32.71441 | -117.11033 | 1027 ft | 132 kts | 279° |
| 2026-04-23 03:07 | 32.71659 | -117.12085 | 794 ft | 130 kts | 287° |
| 2026-04-23 03:08 | 32.71931 | -117.13091 | 619 ft | 129 kts | 287° |